createdAt,value
2018-05-14T00:00:39.330Z,12.80
2018-05-14T00:03:07.630Z,12.80
2018-05-14T00:05:35.954Z,12.70
2018-05-14T00:08:04.255Z,12.70
2018-05-14T00:10:32.570Z,12.70
2018-05-14T00:13:00.862Z,12.70
2018-05-14T00:15:29.187Z,12.70
2018-05-14T00:17:57.491Z,12.70
2018-05-14T00:20:25.812Z,12.60
2018-05-14T00:22:54.115Z,12.60
2018-05-14T00:25:22.444Z,12.60
2018-05-14T00:27:49.973Z,12.60
2018-05-14T00:30:18.290Z,12.60
2018-05-14T00:32:46.594Z,12.60
2018-05-14T00:35:15.474Z,12.70
2018-05-14T00:37:43.776Z,12.60
2018-05-14T00:40:12.091Z,12.60
2018-05-14T00:42:40.386Z,12.60
2018-05-14T00:45:08.706Z,12.60
2018-05-14T00:47:37.002Z,12.60
2018-05-14T00:50:05.300Z,12.60
2018-05-14T00:52:33.623Z,12.60
2018-05-14T00:55:14.565Z,12.50
2018-05-14T00:57:42.866Z,12.50
2018-05-14T01:00:11.167Z,12.50
2018-05-14T01:02:39.492Z,12.50
2018-05-14T01:05:07.783Z,12.50
2018-05-14T01:07:36.105Z,12.50
2018-05-14T01:10:04.406Z,12.50
2018-05-14T01:12:32.734Z,12.50
2018-05-14T01:15:01.035Z,12.50
2018-05-14T01:17:29.363Z,12.50
2018-05-14T01:19:57.663Z,12.50
2018-05-14T01:22:25.982Z,12.50
2018-05-14T01:24:59.918Z,12.50
2018-05-14T01:27:28.243Z,12.50
2018-05-14T01:29:56.539Z,12.40
2018-05-14T01:32:24.871Z,12.40
2018-05-14T01:34:53.170Z,12.40
2018-05-14T01:37:21.499Z,12.40
2018-05-14T01:39:49.815Z,12.40
2018-05-14T01:42:18.146Z,12.40
2018-05-14T01:44:46.453Z,12.50
2018-05-14T01:47:15.691Z,12.40
2018-05-14T01:49:44.178Z,12.40
2018-05-14T01:52:12.496Z,12.40
2018-05-14T01:54:40.801Z,12.30
2018-05-14T01:57:09.119Z,12.30
2018-05-14T01:59:37.415Z,12.30
2018-05-14T02:02:05.802Z,12.40
2018-05-14T02:04:34.059Z,12.40
2018-05-14T02:07:02.388Z,12.40
2018-05-14T02:09:30.695Z,12.40
2018-05-14T02:11:59.035Z,12.40
2018-05-14T02:14:27.335Z,12.30
2018-05-14T02:16:55.653Z,12.40
2018-05-14T02:19:23.990Z,12.40
2018-05-14T02:21:52.295Z,12.40
2018-05-14T02:24:20.617Z,12.40
2018-05-14T02:26:48.919Z,12.40
2018-05-14T02:29:17.897Z,12.40
2018-05-14T02:31:46.144Z,12.40
2018-05-14T02:34:14.463Z,12.40
2018-05-14T02:36:42.771Z,12.40
2018-05-14T02:39:11.101Z,12.40
2018-05-14T02:41:39.403Z,12.30
2018-05-14T02:44:07.727Z,12.40
2018-05-14T02:46:36.077Z,12.40
2018-05-14T02:49:04.378Z,12.40
2018-05-14T02:51:32.684Z,12.40
2018-05-14T02:54:01.008Z,12.40
2018-05-14T02:56:29.303Z,12.40
2018-05-14T02:58:57.627Z,12.40
2018-05-14T03:01:26.623Z,12.40
2018-05-14T03:03:54.940Z,12.40
2018-05-14T03:06:23.251Z,12.40
2018-05-14T03:08:51.580Z,12.40
2018-05-14T03:11:20.019Z,12.40
2018-05-14T03:13:48.359Z,12.40
2018-05-14T03:16:16.663Z,12.50
2018-05-14T03:18:44.966Z,12.50
2018-05-14T03:21:13.287Z,12.50
2018-05-14T03:23:41.587Z,12.50
2018-05-14T03:26:09.912Z,12.50
2018-05-14T03:28:38.224Z,12.50
2018-05-14T03:31:06.544Z,12.50
2018-05-14T03:33:34.845Z,12.50
2018-05-14T03:36:02.426Z,12.50
2018-05-14T03:38:30.729Z,12.50
2018-05-14T03:40:59.051Z,12.50
2018-05-14T03:43:27.361Z,12.50
2018-05-14T03:45:55.684Z,12.50
2018-05-14T03:48:23.984Z,12.50
2018-05-14T03:50:52.311Z,12.50
2018-05-14T03:53:20.608Z,12.50
2018-05-14T03:55:48.927Z,12.50
2018-05-14T03:58:28.140Z,12.40
2018-05-14T04:01:08.328Z,12.50
2018-05-14T04:03:48.548Z,12.50
2018-05-14T04:06:27.794Z,12.50
2018-05-14T04:08:56.096Z,12.50
2018-05-14T04:11:24.442Z,12.50
2018-05-14T04:13:52.749Z,12.50
2018-05-14T04:16:21.047Z,12.60
2018-05-14T04:18:49.370Z,12.50
2018-05-14T04:21:16.906Z,12.50
2018-05-14T04:23:45.225Z,12.60
2018-05-14T04:26:13.526Z,12.60
2018-05-14T04:28:41.846Z,12.60
2018-05-14T04:31:10.164Z,12.60
2018-05-14T04:33:38.499Z,12.70
2018-05-14T04:36:06.800Z,12.70
2018-05-14T04:38:35.165Z,12.70
2018-05-14T04:41:03.444Z,12.70
2018-05-14T04:43:31.791Z,12.70
2018-05-14T04:46:00.095Z,12.60
2018-05-14T04:48:28.391Z,12.60
2018-05-14T04:50:56.715Z,12.60
2018-05-14T04:53:25.015Z,12.60
2018-05-14T04:55:53.335Z,12.70
2018-05-14T04:58:21.656Z,12.70
2018-05-14T05:00:50.001Z,12.70
2018-05-14T05:03:18.306Z,12.70
2018-05-14T05:05:46.627Z,12.70
2018-05-14T05:08:14.927Z,12.70
2018-05-14T05:10:43.250Z,12.70
2018-05-14T05:13:11.551Z,12.70
2018-05-14T05:15:39.872Z,12.70
2018-05-14T05:18:08.429Z,12.70
2018-05-14T05:20:36.748Z,12.70
2018-05-14T05:23:05.040Z,12.70
2018-05-14T05:25:33.382Z,12.80
2018-05-14T05:28:01.678Z,12.80
2018-05-14T05:30:30.020Z,12.90
2018-05-14T05:32:58.334Z,12.90
2018-05-14T05:35:26.642Z,12.90
2018-05-14T05:37:55.058Z,12.90
2018-05-14T05:40:22.538Z,12.90
2018-05-14T05:42:50.866Z,12.90
2018-05-14T05:45:19.240Z,12.90
2018-05-14T05:47:48.075Z,13.00
2018-05-14T05:50:16.378Z,13.00
2018-05-14T05:52:44.845Z,13.00
2018-05-14T05:55:13.163Z,13.10
2018-05-14T05:57:41.568Z,13.10
2018-05-14T06:00:09.869Z,13.10
2018-05-14T06:02:38.196Z,13.20
2018-05-14T06:05:06.682Z,13.20
2018-05-14T06:07:35.025Z,13.30
2018-05-14T06:10:03.327Z,13.30
2018-05-14T06:12:31.631Z,13.40
2018-05-14T06:14:59.951Z,13.50
2018-05-14T06:17:28.891Z,13.50
2018-05-14T06:19:57.216Z,13.60
2018-05-14T06:22:25.618Z,13.60
2018-05-14T06:24:53.876Z,13.60
2018-05-14T06:27:22.179Z,13.50
2018-05-14T06:29:50.490Z,13.50
2018-05-14T06:32:18.786Z,13.40
2018-05-14T06:34:47.103Z,13.40
2018-05-14T06:37:16.241Z,13.40
2018-05-14T06:39:44.567Z,13.30
2018-05-14T06:42:12.872Z,13.30
2018-05-14T06:44:41.199Z,13.40
2018-05-14T06:47:09.507Z,13.50
2018-05-14T06:49:37.824Z,13.50
2018-05-14T06:52:06.119Z,13.50
2018-05-14T06:54:34.448Z,13.50
2018-05-14T06:57:02.742Z,13.60
2018-05-14T06:59:30.310Z,13.50
2018-05-14T07:01:58.620Z,13.70
2018-05-14T07:04:26.956Z,13.80
2018-05-14T07:06:55.255Z,13.80
2018-05-14T07:09:23.579Z,13.80
2018-05-14T07:11:51.879Z,13.80
2018-05-14T07:14:21.333Z,13.70
2018-05-14T07:16:49.631Z,13.70
2018-05-14T07:19:17.984Z,13.70
2018-05-14T07:21:46.294Z,13.60
2018-05-14T07:24:14.591Z,13.60
2018-05-14T07:26:42.906Z,13.70
2018-05-14T07:29:11.206Z,13.70
2018-05-14T07:31:39.529Z,13.80
2018-05-14T07:34:07.831Z,13.90
2018-05-14T07:36:35.390Z,13.90
2018-05-14T07:39:03.692Z,14.10
2018-05-14T07:41:32.019Z,14.20
2018-05-14T07:44:03.978Z,14.30
2018-05-14T07:46:32.307Z,14.30
2018-05-14T07:49:00.609Z,14.40
2018-05-14T07:51:28.941Z,14.50
2018-05-14T07:53:57.243Z,14.60
2018-05-14T07:56:25.567Z,14.60
2018-05-14T07:58:53.867Z,14.70
2018-05-14T08:01:22.187Z,14.70
2018-05-14T08:03:50.491Z,14.80
2018-05-14T08:06:19.037Z,14.90
2018-05-14T08:08:46.437Z,14.80
2018-05-14T08:11:14.698Z,15.00
2018-05-14T08:13:42.990Z,15.10
2018-05-14T08:16:11.640Z,15.10
2018-05-14T08:18:39.940Z,15.10
2018-05-14T08:21:08.270Z,15.10
2018-05-14T08:23:36.639Z,15.10
2018-05-14T08:26:04.900Z,15.20
2018-05-14T08:28:33.199Z,15.30
2018-05-14T08:31:01.522Z,15.30
2018-05-14T08:33:29.832Z,15.30
2018-05-14T08:35:58.155Z,15.40
2018-05-14T08:38:26.454Z,15.50
2018-05-14T08:40:54.786Z,15.70
2018-05-14T08:43:23.084Z,15.70
2018-05-14T08:45:51.412Z,15.80
2018-05-14T08:48:19.720Z,15.80
2018-05-14T08:50:48.037Z,15.90
2018-05-14T08:53:16.342Z,16.10
2018-05-14T08:55:44.662Z,16.20
2018-05-14T08:58:12.958Z,16.10
2018-05-14T09:00:41.316Z,16.00
2018-05-14T09:03:09.586Z,15.90
2018-05-14T09:05:37.898Z,15.90
2018-05-14T09:08:06.196Z,15.90
2018-05-14T09:10:36.255Z,16.00
2018-05-14T09:13:04.546Z,16.10
2018-05-14T09:15:32.103Z,16.10
2018-05-14T09:18:00.414Z,16.20
2018-05-14T09:20:28.707Z,16.50
2018-05-14T09:22:57.023Z,16.80
2018-05-14T09:25:24.558Z,16.80
2018-05-14T09:27:52.875Z,17.10
2018-05-14T09:30:21.203Z,17.10
2018-05-14T09:32:49.521Z,17.20
2018-05-14T09:35:17.830Z,17.10
2018-05-14T09:37:46.156Z,16.90
2018-05-14T09:40:14.492Z,16.60
2018-05-14T09:42:42.812Z,16.50
2018-05-14T09:45:11.108Z,16.60
2018-05-14T09:47:39.423Z,16.70
2018-05-14T09:50:07.719Z,16.80
2018-05-14T09:52:36.031Z,16.90
2018-05-14T09:55:04.322Z,16.90
2018-05-14T09:57:32.645Z,17.00
2018-05-14T10:00:00.943Z,17.10
2018-05-14T10:02:29.699Z,17.10
2018-05-14T10:04:57.995Z,16.90
2018-05-14T10:07:26.334Z,16.90
2018-05-14T10:09:54.641Z,17.00
2018-05-14T10:12:22.959Z,17.10
2018-05-14T10:14:51.250Z,17.10
2018-05-14T10:17:19.566Z,17.40
2018-05-14T10:19:47.858Z,17.80
2018-05-14T10:22:16.179Z,18.30
2018-05-14T10:24:44.599Z,18.40
2018-05-14T10:27:12.823Z,18.60
2018-05-14T10:29:41.114Z,18.60
2018-05-14T10:32:09.431Z,18.50
2018-05-14T10:34:37.722Z,18.70
2018-05-14T10:37:06.039Z,18.70
2018-05-14T10:39:34.335Z,18.60
2018-05-14T10:42:02.662Z,18.50
2018-05-14T10:44:30.954Z,18.40
2018-05-14T10:46:59.267Z,18.50
2018-05-14T10:49:27.564Z,18.40
2018-05-14T10:51:55.878Z,18.30
2018-05-14T10:54:24.177Z,18.40
2018-05-14T10:56:52.531Z,18.40
2018-05-14T10:59:20.827Z,18.30
2018-05-14T11:01:49.127Z,18.30
2018-05-14T11:04:17.448Z,18.40
2018-05-14T11:06:45.748Z,18.50
2018-05-14T11:09:14.071Z,18.60
2018-05-14T11:11:42.366Z,18.60
2018-05-14T11:14:10.687Z,18.70
2018-05-14T11:16:38.981Z,18.90
2018-05-14T11:19:07.303Z,19.20
2018-05-14T11:21:35.601Z,19.70
2018-05-14T11:24:03.919Z,20.00
2018-05-14T11:26:32.210Z,20.10
2018-05-14T11:29:00.522Z,20.10
2018-05-14T11:31:29.646Z,20.10
2018-05-14T11:33:57.959Z,20.10
2018-05-14T11:36:26.255Z,20.00
2018-05-14T11:38:54.566Z,19.90
2018-05-14T11:41:22.865Z,19.80
2018-05-14T11:43:51.178Z,19.60
2018-05-14T11:46:19.474Z,19.50
2018-05-14T11:48:47.796Z,19.70
2018-05-14T11:51:16.091Z,20.10
2018-05-14T11:53:44.449Z,20.30
2018-05-14T11:56:12.752Z,20.50
2018-05-14T11:58:41.066Z,20.60
2018-05-14T12:01:09.359Z,20.70
2018-05-14T12:03:37.692Z,20.90
2018-05-14T12:06:06.008Z,21.10
2018-05-14T12:08:34.370Z,21.00
2018-05-14T12:11:03.207Z,20.80
2018-05-14T12:13:31.528Z,20.80
2018-05-14T12:15:59.903Z,20.80
2018-05-14T12:18:28.177Z,20.90
2018-05-14T12:20:56.471Z,21.00
2018-05-14T12:23:24.794Z,21.20
2018-05-14T12:25:53.099Z,21.10
2018-05-14T12:28:21.420Z,21.10
2018-05-14T12:30:49.722Z,21.00
2018-05-14T12:33:18.051Z,20.90
2018-05-14T12:35:46.513Z,20.90
2018-05-14T12:38:14.868Z,21.00
2018-05-14T12:40:43.176Z,21.10
2018-05-14T12:43:11.516Z,21.00
2018-05-14T12:45:40.095Z,20.90
2018-05-14T12:48:08.399Z,20.90
2018-05-14T12:50:36.720Z,20.70
2018-05-14T12:53:05.018Z,20.60
2018-05-14T12:55:33.336Z,20.80
2018-05-14T12:58:01.640Z,21.00
2018-05-14T13:00:29.962Z,21.00
2018-05-14T13:02:58.260Z,21.00
2018-05-14T13:05:26.570Z,21.10
2018-05-14T13:07:54.868Z,21.20
2018-05-14T13:10:23.207Z,21.30
2018-05-14T13:12:51.515Z,21.50
2018-05-14T13:15:19.835Z,21.70
2018-05-14T13:17:48.134Z,21.90
2018-05-14T13:20:16.447Z,22.00
2018-05-14T13:22:44.743Z,22.00
2018-05-14T13:25:13.063Z,21.90
2018-05-14T13:27:41.359Z,21.70
2018-05-14T13:30:09.683Z,21.70
2018-05-14T13:32:37.979Z,21.70
2018-05-14T13:35:06.297Z,21.90
2018-05-14T13:37:34.719Z,22.00
2018-05-14T13:40:02.984Z,22.00
2018-05-14T13:42:31.296Z,21.90
2018-05-14T13:44:59.621Z,21.90
2018-05-14T13:47:27.918Z,21.80
2018-05-14T13:49:56.240Z,21.70
2018-05-14T13:52:23.779Z,21.60
2018-05-14T13:54:52.098Z,21.70
2018-05-14T13:57:20.434Z,22.00
2018-05-14T13:59:48.731Z,22.10
2018-05-14T14:02:17.559Z,22.30
2018-05-14T14:04:45.883Z,22.40
2018-05-14T14:07:14.178Z,22.50
2018-05-14T14:09:42.508Z,22.50
2018-05-14T14:12:10.811Z,22.50
2018-05-14T14:14:39.134Z,22.70
2018-05-14T14:17:07.545Z,22.70
2018-05-14T14:19:35.776Z,22.70
2018-05-14T14:22:04.083Z,23.00
2018-05-14T14:24:32.410Z,23.40
2018-05-14T14:27:00.711Z,23.60
2018-05-14T14:29:29.022Z,23.70
2018-05-14T14:31:57.323Z,23.60
2018-05-14T14:34:25.630Z,23.60
2018-05-14T14:36:53.958Z,23.60
2018-05-14T14:39:22.266Z,23.70
2018-05-14T14:41:50.614Z,23.90
2018-05-14T14:44:18.902Z,24.20
2018-05-14T14:46:47.223Z,24.20
2018-05-14T14:49:15.549Z,24.40
2018-05-14T14:51:43.859Z,24.60
2018-05-14T14:54:12.169Z,24.80
2018-05-14T14:56:39.719Z,24.80
2018-05-14T14:59:08.027Z,24.90
2018-05-14T15:01:36.359Z,24.90
2018-05-14T15:04:04.658Z,24.90
2018-05-14T15:06:32.214Z,25.00
2018-05-14T15:09:00.508Z,25.10
2018-05-14T15:11:29.456Z,25.10
2018-05-14T15:13:57.747Z,25.30
2018-05-14T15:16:26.066Z,25.50
2018-05-14T15:18:54.359Z,25.60
2018-05-14T15:21:22.683Z,25.80
2018-05-14T15:23:50.979Z,25.90
2018-05-14T15:26:19.306Z,25.90
2018-05-14T15:28:47.604Z,25.70
2018-05-14T15:31:15.924Z,25.70
2018-05-14T15:33:44.220Z,25.60
2018-05-14T15:36:12.539Z,25.30
2018-05-14T15:38:40.072Z,25.30
2018-05-14T15:41:09.500Z,25.20
2018-05-14T15:43:37.808Z,25.30
2018-05-14T15:46:06.122Z,25.50
2018-05-14T15:48:34.424Z,25.70
2018-05-14T15:51:02.740Z,25.60
2018-05-14T15:53:31.863Z,25.50
2018-05-14T15:55:59.415Z,25.50
2018-05-14T15:58:26.952Z,25.50
2018-05-14T16:00:55.297Z,25.50
2018-05-14T16:03:23.594Z,25.70
2018-05-14T16:05:51.911Z,25.80
2018-05-14T16:08:20.207Z,25.80
2018-05-14T16:10:48.526Z,25.80
2018-05-14T16:13:17.542Z,25.80
2018-05-14T16:15:45.859Z,25.80
2018-05-14T16:18:14.703Z,25.90
2018-05-14T16:20:43.069Z,26.10
2018-05-14T16:23:11.339Z,26.20
2018-05-14T16:25:39.634Z,26.20
2018-05-14T16:28:07.182Z,26.20
2018-05-14T16:30:35.475Z,26.80
2018-05-14T16:33:03.812Z,27.20
2018-05-14T16:35:32.110Z,27.30
2018-05-14T16:38:01.074Z,27.10
2018-05-14T16:40:29.371Z,26.60
2018-05-14T16:42:57.692Z,25.90
2018-05-14T16:45:25.987Z,25.20
2018-05-14T16:47:54.323Z,24.60
2018-05-14T16:50:22.701Z,23.90
2018-05-14T16:52:50.969Z,23.20
2018-05-14T16:55:19.258Z,22.70
2018-05-14T16:57:47.900Z,22.20
2018-05-14T17:00:16.160Z,21.90
2018-05-14T17:02:45.048Z,21.40
2018-05-14T17:05:13.343Z,20.70
2018-05-14T17:07:40.917Z,20.70
2018-05-14T17:10:09.214Z,19.70
2018-05-14T17:12:37.530Z,19.40
2018-05-14T17:15:05.829Z,19.20
2018-05-14T17:17:34.154Z,18.90
2018-05-14T17:20:01.692Z,18.90
2018-05-14T17:22:30.707Z,18.70
2018-05-14T17:24:59.003Z,18.60
2018-05-14T17:27:27.324Z,18.50
2018-05-14T17:29:56.005Z,18.40
2018-05-14T17:32:24.318Z,18.20
2018-05-14T17:34:53.516Z,18.10
2018-05-14T17:37:21.839Z,18.10
2018-05-14T17:39:50.132Z,18.00
2018-05-14T17:42:18.451Z,18.00
2018-05-14T17:44:46.748Z,17.90
2018-05-14T17:47:15.090Z,17.90
2018-05-14T17:49:43.378Z,17.80
2018-05-14T17:52:11.695Z,17.70
2018-05-14T17:54:40.015Z,17.70
2018-05-14T17:57:08.332Z,17.60
2018-05-14T17:59:36.632Z,17.60
2018-05-14T18:02:04.949Z,17.60
2018-05-14T18:04:33.242Z,17.60
2018-05-14T18:07:01.587Z,17.60
2018-05-14T18:09:29.927Z,17.50
2018-05-14T18:11:58.219Z,17.60
2018-05-14T18:14:27.414Z,17.50
2018-05-14T18:16:55.712Z,17.50
2018-05-14T18:19:24.036Z,17.50
2018-05-14T18:21:52.332Z,17.50
2018-05-14T18:24:20.646Z,17.40
2018-05-14T18:26:48.939Z,17.40
2018-05-14T18:29:22.898Z,17.30
2018-05-14T18:31:56.043Z,17.30
2018-05-14T18:34:30.039Z,17.20
2018-05-14T18:36:58.340Z,17.20
2018-05-14T18:39:27.170Z,17.10
2018-05-14T18:41:56.162Z,17.10
2018-05-14T18:44:30.035Z,17.10
2018-05-14T18:46:58.915Z,17.10
2018-05-14T18:49:27.665Z,17.00
2018-05-14T18:51:56.058Z,16.90
2018-05-14T18:54:28.954Z,16.90
2018-05-14T18:56:57.251Z,16.80
2018-05-14T18:59:25.595Z,16.70
2018-05-14T19:01:53.891Z,16.70
2018-05-14T19:04:22.207Z,16.60
2018-05-14T19:06:51.059Z,16.50
2018-05-14T19:09:19.379Z,16.50
2018-05-14T19:11:51.587Z,16.40
2018-05-14T19:14:19.910Z,16.30
2018-05-14T19:16:53.998Z,16.30
2018-05-14T19:19:22.314Z,16.20
2018-05-14T19:21:50.615Z,16.10
2018-05-14T19:24:19.843Z,16.10
2018-05-14T19:26:48.134Z,16.10
2018-05-14T19:29:22.170Z,16.00
2018-05-14T19:31:50.404Z,16.00
2018-05-14T19:34:24.347Z,16.00
2018-05-14T19:36:52.675Z,15.90
2018-05-14T19:39:26.630Z,15.80
2018-05-14T19:41:54.922Z,15.80
2018-05-14T19:44:23.235Z,15.80
2018-05-14T19:46:51.526Z,15.70
2018-05-14T19:49:19.081Z,15.70
2018-05-14T19:51:47.392Z,15.70
2018-05-14T19:54:16.575Z,15.70
2018-05-14T19:56:44.886Z,15.70
2018-05-14T19:59:13.206Z,15.70
2018-05-14T20:01:41.512Z,15.70
2018-05-14T20:04:09.831Z,15.70
2018-05-14T20:06:37.363Z,15.60
2018-05-14T20:09:05.696Z,15.70
2018-05-14T20:11:33.222Z,15.60
2018-05-14T20:14:01.517Z,15.60
2018-05-14T20:16:29.835Z,15.60
2018-05-14T20:18:58.137Z,15.50
2018-05-14T20:21:26.465Z,15.50
2018-05-14T20:23:54.759Z,15.50
2018-05-14T20:26:23.082Z,15.40
2018-05-14T20:28:51.379Z,15.40
2018-05-14T20:31:19.765Z,15.40
2018-05-14T20:33:48.011Z,15.40
2018-05-14T20:36:17.188Z,15.40
2018-05-14T20:38:45.487Z,15.40
2018-05-14T20:41:13.805Z,15.50
2018-05-14T20:43:42.099Z,15.40
2018-05-14T20:46:12.103Z,15.40
2018-05-14T20:48:40.395Z,15.50
2018-05-14T20:51:08.717Z,15.40
2018-05-14T20:53:37.021Z,15.40
2018-05-14T20:56:05.344Z,15.40
2018-05-14T20:58:34.571Z,15.50
2018-05-14T21:01:02.886Z,15.50
2018-05-14T21:03:31.186Z,15.50
2018-05-14T21:05:59.507Z,15.50
2018-05-14T21:08:27.807Z,15.50
2018-05-14T21:10:56.239Z,15.50
2018-05-14T21:13:25.027Z,15.50
2018-05-14T21:15:53.359Z,15.40
2018-05-14T21:18:21.671Z,15.40
2018-05-14T21:20:49.991Z,15.40
2018-05-14T21:23:18.295Z,15.40
2018-05-14T21:25:46.617Z,15.30
2018-05-14T21:28:14.928Z,15.30
2018-05-14T21:30:43.246Z,15.30
2018-05-14T21:33:11.550Z,15.30
2018-05-14T21:35:39.866Z,15.20
2018-05-14T21:38:08.167Z,15.20
2018-05-14T21:40:36.487Z,15.20
2018-05-14T21:43:05.297Z,15.10
2018-05-14T21:45:34.485Z,15.10
2018-05-14T21:48:02.794Z,15.00
2018-05-14T21:50:31.119Z,15.00
2018-05-14T21:53:00.399Z,14.90
2018-05-14T21:55:29.555Z,14.80
2018-05-14T21:57:57.848Z,14.70
2018-05-14T22:00:26.724Z,14.60
2018-05-14T22:02:55.071Z,14.60
2018-05-14T22:05:23.371Z,14.50
2018-05-14T22:07:51.720Z,14.50
2018-05-14T22:10:20.024Z,14.40
2018-05-14T22:12:48.347Z,14.40
2018-05-14T22:15:16.693Z,14.30
2018-05-14T22:17:45.033Z,14.30
2018-05-14T22:20:13.327Z,14.20
2018-05-14T22:22:41.646Z,14.20
2018-05-14T22:25:09.946Z,14.20
2018-05-14T22:27:38.264Z,14.10
2018-05-14T22:30:06.598Z,14.10
2018-05-14T22:32:34.915Z,14.10
2018-05-14T22:35:03.235Z,14.10
2018-05-14T22:37:31.645Z,14.00
2018-05-14T22:39:59.879Z,14.10
2018-05-14T22:42:28.199Z,14.00
2018-05-14T22:44:56.499Z,14.00
2018-05-14T22:47:24.815Z,14.00
2018-05-14T22:49:53.106Z,14.00
2018-05-14T22:52:21.423Z,14.00
2018-05-14T22:54:50.170Z,14.00
2018-05-14T22:57:18.493Z,14.00
2018-05-14T22:59:47.675Z,14.00
2018-05-14T23:02:15.994Z,14.00
2018-05-14T23:04:44.338Z,14.00
2018-05-14T23:07:12.650Z,14.00
2018-05-14T23:09:40.956Z,14.00
2018-05-14T23:12:09.284Z,14.00
2018-05-14T23:14:37.592Z,14.00
2018-05-14T23:17:05.918Z,13.90
2018-05-14T23:19:34.227Z,13.90
2018-05-14T23:22:02.554Z,13.90
2018-05-14T23:24:30.851Z,13.90
2018-05-14T23:26:59.170Z,13.90
2018-05-14T23:29:27.475Z,13.90
2018-05-14T23:31:56.319Z,13.90
2018-05-14T23:34:24.646Z,13.90
2018-05-14T23:36:53.006Z,13.80
2018-05-14T23:39:20.537Z,13.90
2018-05-14T23:41:48.858Z,13.80
2018-05-14T23:44:17.158Z,13.80
2018-05-14T23:46:46.176Z,13.80
2018-05-14T23:49:15.367Z,13.70
2018-05-14T23:51:43.692Z,13.70
2018-05-14T23:54:12.543Z,13.70
2018-05-14T23:56:40.850Z,13.70
2018-05-14T23:59:09.166Z,13.70
